sensor_id;sensor_type;location;lat;lon;timestamp;pressure;altitude;pressure_sealevel;temperature;humidity
59240;BME280;45010;53.640;10.578;2023-03-26T00:01:03;99436.13;;;25.63;33.03
59240;BME280;45010;53.640;10.578;2023-03-26T00:04:05;99445.72;;;25.70;33.01
59240;BME280;45010;53.640;10.578;2023-03-26T00:07:06;99455.34;;;25.71;33.20
59240;BME280;45010;53.640;10.578;2023-03-26T00:10:09;99458.00;;;25.71;33.38
59240;BME280;45010;53.640;10.578;2023-03-26T00:13:09;99459.59;;;25.72;33.17
59240;BME280;45010;53.640;10.578;2023-03-26T00:16:10;99450.00;;;25.60;33.34
59240;BME280;45010;53.640;10.578;2023-03-26T00:19:13;99470.28;;;25.72;33.44
59240;BME280;45010;53.640;10.578;2023-03-26T00:22:13;99472.16;;;25.71;33.14
59240;BME280;45010;53.640;10.578;2023-03-26T00:25:16;99475.63;;;25.72;33.36
59240;BME280;45010;53.640;10.578;2023-03-26T00:28:17;99477.22;;;25.73;33.07
59240;BME280;45010;53.640;10.578;2023-03-26T00:31:20;99450.81;;;25.56;33.07
59240;BME280;45010;53.640;10.578;2023-03-26T00:34:20;99466.56;;;25.62;33.26
59240;BME280;45010;53.640;10.578;2023-03-26T00:37:22;99484.72;;;25.71;33.14
59240;BME280;45010;53.640;10.578;2023-03-26T00:40:25;99492.97;;;25.69;33.23
59240;BME280;45010;53.640;10.578;2023-03-26T00:43:25;99491.13;;;25.70;33.09
59240;BME280;45010;53.640;10.578;2023-03-26T00:46:31;99497.53;;;25.69;33.32
59240;BME280;45010;53.640;10.578;2023-03-26T00:49:32;99508.22;;;25.69;33.21
59240;BME280;45010;53.640;10.578;2023-03-26T00:52:32;99471.38;;;25.55;33.29
59240;BME280;45010;53.640;10.578;2023-03-26T00:55:35;99495.91;;;25.68;33.17
59240;BME280;45010;53.640;10.578;2023-03-26T00:58:35;99487.94;;;25.62;33.21
59240;BME280;45010;53.640;10.578;2023-03-26T01:01:36;99504.47;;;25.70;33.35
59240;BME280;45010;53.640;10.578;2023-03-26T01:04:36;99507.16;;;25.70;33.33
59240;BME280;45010;53.640;10.578;2023-03-26T01:07:37;99503.94;;;25.68;33.33
59240;BME280;45010;53.640;10.578;2023-03-26T01:10:37;99505.81;;;25.67;33.33
59240;BME280;45010;53.640;10.578;2023-03-26T01:13:40;99503.41;;;25.65;33.15
59240;BME280;45010;53.640;10.578;2023-03-26T01:19:53;99508.22;;;25.69;33.05
59240;BME280;45010;53.640;10.578;2023-03-26T01:23:01;99503.97;;;25.62;32.80
59240;BME280;45010;53.640;10.578;2023-03-26T01:26:11;99513.56;;;25.69;32.91
59240;BME280;45010;53.640;10.578;2023-03-26T01:29:20;99521.84;;;25.67;32.82
59240;BME280;45010;53.640;10.578;2023-03-26T01:32:29;99520.50;;;25.64;32.86
59240;BME280;45010;53.640;10.578;2023-03-26T01:35:44;99521.56;;;25.63;32.68
59240;BME280;45010;53.640;10.578;2023-03-26T01:39:11;99522.09;;;25.60;32.92
59240;BME280;45010;53.640;10.578;2023-03-26T01:42:27;99513.00;;;25.51;32.84
59240;BME280;45010;53.640;10.578;2023-03-26T01:45:35;99524.72;;;25.50;32.83
59240;BME280;45010;53.640;10.578;2023-03-26T01:48:42;99514.59;;;25.47;32.83
59240;BME280;45010;53.640;10.578;2023-03-26T01:51:43;99527.38;;;25.50;32.76
59240;BME280;45010;53.640;10.578;2023-03-26T01:54:43;99535.41;;;25.45;32.80
59240;BME280;45010;53.640;10.578;2023-03-26T01:57:58;99536.22;;;25.45;32.90
59240;BME280;45010;53.640;10.578;2023-03-26T02:04:22;99532.75;;;25.39;32.94
59240;BME280;45010;53.640;10.578;2023-03-26T02:07:41;99519.38;;;25.24;32.95
59240;BME280;45010;53.640;10.578;2023-03-26T02:10:46;99542.59;;;25.34;33.09
59240;BME280;45010;53.640;10.578;2023-03-26T02:13:49;99546.59;;;25.31;32.79
59240;BME280;45010;53.640;10.578;2023-03-26T02:16:50;99554.06;;;25.29;32.91
59240;BME280;45010;53.640;10.578;2023-03-26T02:19:50;99547.66;;;25.25;33.01
59240;BME280;45010;53.640;10.578;2023-03-26T02:22:50;99549.81;;;25.23;33.10
59240;BME280;45010;53.640;10.578;2023-03-26T02:25:51;99544.97;;;25.20;33.03
59240;BME280;45010;53.640;10.578;2023-03-26T02:28:51;99559.38;;;25.19;32.97
59240;BME280;45010;53.640;10.578;2023-03-26T02:31:52;99565.78;;;25.18;32.63
59240;BME280;45010;53.640;10.578;2023-03-26T02:34:52;99567.94;;;25.16;33.04
59240;BME280;45010;53.640;10.578;2023-03-26T02:37:52;99557.75;;;25.07;32.94
59240;BME280;45010;53.640;10.578;2023-03-26T02:40:54;99565.25;;;25.10;33.02
59240;BME280;45010;53.640;10.578;2023-03-26T02:43:54;99568.16;;;25.09;32.99
59240;BME280;45010;53.640;10.578;2023-03-26T02:46:55;99574.84;;;25.06;33.18
59240;BME280;45010;53.640;10.578;2023-03-26T02:49:55;99560.94;;;24.99;33.11
59240;BME280;45010;53.640;10.578;2023-03-26T02:52:55;99570.00;;;24.98;33.21
59240;BME280;45010;53.640;10.578;2023-03-26T02:55:57;99567.88;;;25.00;33.06
59240;BME280;45010;53.640;10.578;2023-03-26T02:58:57;99564.69;;;24.98;33.14
59240;BME280;45010;53.640;10.578;2023-03-26T03:01:58;99575.59;;;24.96;33.15
59240;BME280;45010;53.640;10.578;2023-03-26T03:04:58;99568.16;;;24.93;33.16
59240;BME280;45010;53.640;10.578;2023-03-26T03:08:00;99563.59;;;24.94;33.16
59240;BME280;45010;53.640;10.578;2023-03-26T03:11:09;99560.38;;;24.87;33.22
59240;BME280;45010;53.640;10.578;2023-03-26T03:14:09;99566.78;;;24.85;32.89
59240;BME280;45010;53.640;10.578;2023-03-26T03:17:10;99572.63;;;24.82;33.28
59240;BME280;45010;53.640;10.578;2023-03-26T03:20:11;99566.19;;;24.78;33.16
59240;BME280;45010;53.640;10.578;2023-03-26T03:23:11;99571.28;;;24.85;33.16
59240;BME280;45010;53.640;10.578;2023-03-26T03:26:15;99568.88;;;24.83;33.25
59240;BME280;45010;53.640;10.578;2023-03-26T03:29:15;99565.69;;;24.81;33.26
59240;BME280;45010;53.640;10.578;2023-03-26T03:32:16;99573.91;;;24.80;33.21
59240;BME280;45010;53.640;10.578;2023-03-26T03:35:16;99582.97;;;24.79;33.26
59240;BME280;45010;53.640;10.578;2023-03-26T03:38:17;99580.56;;;24.77;33.16
59240;BME280;45010;53.640;10.578;2023-03-26T03:41:18;99577.38;;;24.75;33.42
59240;BME280;45010;53.640;10.578;2023-03-26T03:44:18;99581.09;;;24.74;33.35
59240;BME280;45010;53.640;10.578;2023-03-26T03:47:18;99572.50;;;24.62;33.33
59240;BME280;45010;53.640;10.578;2023-03-26T03:50:19;99592.28;;;24.71;33.37
59240;BME280;45010;53.640;10.578;2023-03-26T03:53:21;99581.03;;;24.64;33.48
59240;BME280;45010;53.640;10.578;2023-03-26T03:56:21;99588.25;;;24.68;33.37
59240;BME280;45010;53.640;10.578;2023-03-26T03:59:23;99591.19;;;24.67;33.47
59240;BME280;45010;53.640;10.578;2023-03-26T04:02:24;99583.47;;;24.65;33.25
59240;BME280;45010;53.640;10.578;2023-03-26T04:05:25;99579.97;;;24.65;33.50
59240;BME280;45010;53.640;10.578;2023-03-26T04:08:25;99576.78;;;24.63;33.50
59240;BME280;45010;53.640;10.578;2023-03-26T04:11:25;99579.66;;;24.56;33.36
59240;BME280;45010;53.640;10.578;2023-03-26T04:14:26;99578.88;;;24.55;33.26
59240;BME280;45010;53.640;10.578;2023-03-26T04:17:26;99590.63;;;24.60;33.54
59240;BME280;45010;53.640;10.578;2023-03-26T04:20:29;99587.41;;;24.57;33.72
59240;BME280;45010;53.640;10.578;2023-03-26T04:23:31;99583.69;;;24.58;33.56
59240;BME280;45010;53.640;10.578;2023-03-26T04:26:31;99585.81;;;24.56;33.50
59240;BME280;45010;53.640;10.578;2023-03-26T04:29:37;99563.91;;;24.44;33.49
59240;BME280;45010;53.640;10.578;2023-03-26T04:32:41;99578.31;;;24.53;33.40
59240;BME280;45010;53.640;10.578;2023-03-26T04:35:43;99573.56;;;24.55;33.30
59240;BME280;45010;53.640;10.578;2023-03-26T04:38:45;99577.28;;;24.54;33.30
59240;BME280;45010;53.640;10.578;2023-03-26T04:41:48;99560.69;;;24.47;33.41
59240;BME280;45010;53.640;10.578;2023-03-26T04:44:48;99572.47;;;24.51;33.19
59240;BME280;45010;53.640;10.578;2023-03-26T04:47:49;99569.78;;;24.51;33.45
59240;BME280;45010;53.640;10.578;2023-03-26T04:50:50;99569.00;;;24.51;33.51
59240;BME280;45010;53.640;10.578;2023-03-26T04:53:53;99559.63;;;24.43;33.61
59240;BME280;45010;53.640;10.578;2023-03-26T04:56:58;99566.03;;;24.47;33.64
59240;BME280;45010;53.640;10.578;2023-03-26T05:00:03;99554.31;;;24.43;33.68
59240;BME280;45010;53.640;10.578;2023-03-26T05:03:14;99564.44;;;24.46;33.70
59240;BME280;45010;53.640;10.578;2023-03-26T05:06:15;99566.31;;;24.45;33.57
59240;BME280;45010;53.640;10.578;2023-03-26T05:09:16;99569.22;;;24.44;33.44
59240;BME280;45010;53.640;10.578;2023-03-26T05:12:17;99567.06;;;24.41;33.52
59240;BME280;45010;53.640;10.578;2023-03-26T05:15:18;99566.03;;;24.42;33.57
59240;BME280;45010;53.640;10.578;2023-03-26T05:18:18;99562.53;;;24.41;33.51
59240;BME280;45010;53.640;10.578;2023-03-26T05:21:19;99553.75;;;24.36;33.71
59240;BME280;45010;53.640;10.578;2023-03-26T05:24:19;99572.38;;;24.41;33.33
59240;BME280;45010;53.640;10.578;2023-03-26T05:27:20;99573.47;;;24.40;33.64
59240;BME280;45010;53.640;10.578;2023-03-26T05:30:20;99563.78;;;24.28;33.55
59240;BME280;45010;53.640;10.578;2023-03-26T05:33:21;99572.94;;;24.38;33.74
59240;BME280;45010;53.640;10.578;2023-03-26T05:36:23;99576.09;;;24.29;33.76
59240;BME280;45010;53.640;10.578;2023-03-26T05:39:23;99581.16;;;24.36;33.61
59240;BME280;45010;53.640;10.578;2023-03-26T05:42:25;99582.47;;;24.34;33.75
59240;BME280;45010;53.640;10.578;2023-03-26T05:45:26;99590.22;;;24.35;33.82
59240;BME280;45010;53.640;10.578;2023-03-26T05:48:27;99574.44;;;24.28;33.58
59240;BME280;45010;53.640;10.578;2023-03-26T05:51:27;99592.34;;;24.33;33.53
59240;BME280;45010;53.640;10.578;2023-03-26T05:54:28;99592.34;;;24.33;33.83
59240;BME280;45010;53.640;10.578;2023-03-26T05:57:29;99589.94;;;24.31;33.80
59240;BME280;45010;53.640;10.578;2023-03-26T06:00:29;99592.59;;;24.31;33.84
59240;BME280;45010;53.640;10.578;2023-03-26T06:03:31;99578.72;;;24.24;33.59
59240;BME280;45010;53.640;10.578;2023-03-26T06:06:32;99595.75;;;24.28;33.99
59240;BME280;45010;53.640;10.578;2023-03-26T06:09:32;99596.28;;;24.25;33.85
59240;BME280;45010;53.640;10.578;2023-03-26T06:12:32;99609.09;;;24.28;33.82
59240;BME280;45010;53.640;10.578;2023-03-26T06:15:33;99603.22;;;24.26;33.78
59240;BME280;45010;53.640;10.578;2023-03-26T06:18:34;99600.53;;;24.21;33.69
59240;BME280;45010;53.640;10.578;2023-03-26T06:21:35;99605.34;;;24.24;33.81
59240;BME280;45010;53.640;10.578;2023-03-26T06:24:35;99605.31;;;24.19;34.04
59240;BME280;45010;53.640;10.578;2023-03-26T06:27:35;99619.22;;;24.26;33.77
59240;BME280;45010;53.640;10.578;2023-03-26T06:30:36;99622.94;;;24.25;33.76
59240;BME280;45010;53.640;10.578;2023-03-26T06:33:36;99622.94;;;24.25;34.00
59240;BME280;45010;53.640;10.578;2023-03-26T06:36:36;99632.78;;;24.25;33.86
59240;BME280;45010;53.640;10.578;2023-03-26T06:39:37;99627.44;;;24.25;33.59
59240;BME280;45010;53.640;10.578;2023-03-26T06:42:37;99630.38;;;24.23;33.71
59240;BME280;45010;53.640;10.578;2023-03-26T06:45:37;99644.75;;;24.22;34.00
59240;BME280;45010;53.640;10.578;2023-03-26T06:48:39;99643.69;;;24.18;34.11
59240;BME280;45010;53.640;10.578;2023-03-26T06:51:40;99620.66;;;24.07;33.86
59240;BME280;45010;53.640;10.578;2023-03-26T06:54:40;99639.41;;;24.22;34.09
59240;BME280;45010;53.640;10.578;2023-03-26T06:57:40;99632.50;;;24.21;33.95
59240;BME280;45010;53.640;10.578;2023-03-26T07:00:44;99636.75;;;24.22;34.12
59240;BME280;45010;53.640;10.578;2023-03-26T07:03:45;99645.56;;;24.23;34.22
59240;BME280;45010;53.640;10.578;2023-03-26T07:06:46;99648.47;;;24.21;34.08
59240;BME280;45010;53.640;10.578;2023-03-26T07:09:46;99639.41;;;24.22;33.84
59240;BME280;45010;53.640;10.578;2023-03-26T07:12:47;99645.56;;;24.23;33.79
59240;BME280;45010;53.640;10.578;2023-03-26T07:15:48;99554.59;;;23.71;33.86
59240;BME280;45010;53.640;10.578;2023-03-26T07:18:48;99638.88;;;24.20;33.96
59240;BME280;45010;53.640;10.578;2023-03-26T07:21:48;99618.06;;;24.12;33.84
59240;BME280;45010;53.640;10.578;2023-03-26T07:24:50;99617.41;;;24.04;34.06
59240;BME280;45010;53.640;10.578;2023-03-26T07:37:51;99639.38;;;24.17;34.15
59240;BME280;45010;53.640;10.578;2023-03-26T07:47:32;99652.69;;;24.17;34.26
59240;BME280;45010;53.640;10.578;2023-03-26T07:50:32;99652.69;;;24.17;34.01
59240;BME280;45010;53.640;10.578;2023-03-26T07:53:33;99652.69;;;24.17;34.04
59240;BME280;45010;53.640;10.578;2023-03-26T07:56:37;99647.38;;;24.17;34.09
59240;BME280;45010;53.640;10.578;2023-03-26T07:59:44;99645.47;;;24.12;34.17
59240;BME280;45010;53.640;10.578;2023-03-26T08:06:27;99645.78;;;24.16;34.17
59240;BME280;45010;53.640;10.578;2023-03-26T08:09:34;99571.31;;;23.66;34.32
59240;BME280;45010;53.640;10.578;2023-03-26T08:13:03;99644.72;;;24.17;33.89
59240;BME280;45010;53.640;10.578;2023-03-26T08:16:14;99637.72;;;24.11;34.17
59240;BME280;45010;53.640;10.578;2023-03-26T08:19:39;99651.09;;;24.16;34.21
59240;BME280;45010;53.640;10.578;2023-03-26T08:22:47;99656.41;;;24.16;34.02
59240;BME280;45010;53.640;10.578;2023-03-26T08:29:46;99643.06;;;24.11;33.79
59240;BME280;45010;53.640;10.578;2023-03-26T08:32:55;99644.16;;;24.15;33.99
59240;BME280;45010;53.640;10.578;2023-03-26T08:35:56;99643.09;;;24.16;34.18
59240;BME280;45010;53.640;10.578;2023-03-26T08:38:56;99644.16;;;24.15;34.09
59240;BME280;45010;53.640;10.578;2023-03-26T08:45:25;99652.16;;;24.15;34.28
59240;BME280;45010;53.640;10.578;2023-03-26T09:15:24;99645.22;;;24.14;33.56
59240;BME280;45010;53.640;10.578;2023-03-26T09:25:10;99662.28;;;24.13;30.59
59240;BME280;45010;53.640;10.578;2023-03-26T09:31:24;99655.59;;;24.10;29.13
59240;BME280;45010;53.640;10.578;2023-03-26T09:38:00;99657.94;;;24.07;28.79
59240;BME280;45010;53.640;10.578;2023-03-26T09:57:42;99654.41;;;24.01;30.37
59240;BME280;45010;53.640;10.578;2023-03-26T10:04:29;99657.34;;;23.99;30.53
59240;BME280;45010;53.640;10.578;2023-03-26T10:08:00;99663.47;;;24.00;30.99
59240;BME280;45010;53.640;10.578;2023-03-26T10:11:17;99657.34;;;23.99;31.05
59240;BME280;45010;53.640;10.578;2023-03-26T10:14:33;99647.72;;;23.93;31.31
59240;BME280;45010;53.640;10.578;2023-03-26T10:27:33;99670.91;;;23.98;32.20
59240;BME280;45010;53.640;10.578;2023-03-26T10:37:28;99670.69;;;24.04;32.89
59240;BME280;45010;53.640;10.578;2023-03-26T10:40:50;99658.44;;;24.03;33.01
59240;BME280;45010;53.640;10.578;2023-03-26T10:44:08;99660.69;;;24.12;32.97
59240;BME280;45010;53.640;10.578;2023-03-26T10:50:52;99679.34;;;24.17;32.98
59240;BME280;45010;53.640;10.578;2023-03-26T10:54:07;99664.38;;;24.11;33.09
59240;BME280;45010;53.640;10.578;2023-03-26T11:00:33;99666.06;;;24.22;32.87
59240;BME280;45010;53.640;10.578;2023-03-26T11:03:45;99669.06;;;24.31;33.28
59240;BME280;45010;53.640;10.578;2023-03-26T11:10:24;99658.16;;;24.33;32.88
59240;BME280;45010;53.640;10.578;2023-03-26T11:19:54;99652.91;;;24.43;32.90
59240;BME280;45010;53.640;10.578;2023-03-26T11:23:17;99662.00;;;24.52;33.09
59240;BME280;45010;53.640;10.578;2023-03-26T11:26:33;99661.75;;;24.54;32.99
59240;BME280;45010;53.640;10.578;2023-03-26T11:33:04;99657.25;;;24.54;32.64
59240;BME280;45010;53.640;10.578;2023-03-26T11:36:09;99658.84;;;24.55;32.75
59240;BME280;45010;53.640;10.578;2023-03-26T11:39:14;99661.03;;;24.64;32.66
59240;BME280;45010;53.640;10.578;2023-03-26T11:42:21;99648.75;;;24.63;31.96
59240;BME280;45010;53.640;10.578;2023-03-26T11:45:25;99649.28;;;24.60;31.55
59240;BME280;45010;53.640;10.578;2023-03-26T11:48:37;99655.69;;;24.64;30.67
59240;BME280;45010;53.640;10.578;2023-03-26T11:51:40;99662.41;;;24.71;30.70
59240;BME280;45010;53.640;10.578;2023-03-26T11:54:41;99660.56;;;24.72;30.23
59240;BME280;45010;53.640;10.578;2023-03-26T11:57:49;99658.41;;;24.74;30.02
59240;BME280;45010;53.640;10.578;2023-03-26T12:00:53;99657.34;;;24.75;30.12
59240;BME280;45010;53.640;10.578;2023-03-26T12:03:58;99660.56;;;24.77;30.17
59240;BME280;45010;53.640;10.578;2023-03-26T12:07:28;99646.19;;;24.78;29.53
59240;BME280;45010;53.640;10.578;2023-03-26T12:10:36;99643.50;;;24.73;29.62
59240;BME280;45010;53.640;10.578;2023-03-26T12:13:50;99655.56;;;24.81;29.60
59240;BME280;45010;53.640;10.578;2023-03-26T12:17:04;99651.00;;;24.81;29.40
59240;BME280;45010;53.640;10.578;2023-03-26T12:23:35;99655.31;;;24.88;29.37
59240;BME280;45010;53.640;10.578;2023-03-26T12:26:41;99655.31;;;24.88;29.38
59240;BME280;45010;53.640;10.578;2023-03-26T12:29:41;99643.56;;;24.89;29.23
59240;BME280;45010;53.640;10.578;2023-03-26T12:32:42;99649.47;;;24.91;29.18
59240;BME280;45010;53.640;10.578;2023-03-26T12:35:44;99620.03;;;24.75;29.05
59240;BME280;45010;53.640;10.578;2023-03-26T12:38:44;99585.28;;;24.54;29.15
59240;BME280;45010;53.640;10.578;2023-03-26T12:41:53;99643.59;;;24.94;29.05
59240;BME280;45010;53.640;10.578;2023-03-26T12:44:55;99646.84;;;24.96;29.25
59240;BME280;45010;53.640;10.578;2023-03-26T12:47:58;99650.03;;;24.98;28.97
59240;BME280;45010;53.640;10.578;2023-03-26T12:54:29;99651.13;;;25.02;28.92
59240;BME280;45010;53.640;10.578;2023-03-26T12:57:43;99651.13;;;25.02;28.84
59240;BME280;45010;53.640;10.578;2023-03-26T13:04:36;99656.47;;;25.02;28.40
59240;BME280;45010;53.640;10.578;2023-03-26T13:07:56;99631.84;;;24.90;28.47
59240;BME280;45010;53.640;10.578;2023-03-26T13:11:25;99649.00;;;25.04;28.45
59240;BME280;45010;53.640;10.578;2023-03-26T13:14:46;99651.66;;;25.04;28.22
59240;BME280;45010;53.640;10.578;2023-03-26T13:18:26;99641.53;;;25.06;27.98
59240;BME280;45010;53.640;10.578;2023-03-26T13:24:55;99631.91;;;25.00;27.89
59240;BME280;45010;53.640;10.578;2023-03-26T13:28:26;99638.84;;;25.06;28.02
59240;BME280;45010;53.640;10.578;2023-03-26T13:31:50;99629.25;;;25.05;27.92
59240;BME280;45010;53.640;10.578;2023-03-26T13:35:03;99637.00;;;25.07;27.99
59240;BME280;45010;53.640;10.578;2023-03-26T13:45:04;99634.06;;;25.08;27.78
59240;BME280;45010;53.640;10.578;2023-03-26T13:48:12;99629.53;;;25.09;27.77
59240;BME280;45010;53.640;10.578;2023-03-26T13:51:16;99637.28;;;25.10;27.79
59240;BME280;45010;53.640;10.578;2023-03-26T13:54:24;99621.22;;;25.00;27.79
59240;BME280;45010;53.640;10.578;2023-03-26T13:57:37;99628.22;;;25.11;27.72
59240;BME280;45010;53.640;10.578;2023-03-26T14:01:02;99628.22;;;25.11;27.86
59240;BME280;45010;53.640;10.578;2023-03-26T14:04:29;99625.53;;;25.11;28.03
59240;BME280;45010;53.640;10.578;2023-03-26T14:07:39;99629.81;;;25.12;28.32
59240;BME280;45010;53.640;10.578;2023-03-26T14:10:46;99621.00;;;25.07;28.46
59240;BME280;45010;53.640;10.578;2023-03-26T14:13:55;99630.88;;;25.11;28.52
59240;BME280;45010;53.640;10.578;2023-03-26T14:17:00;99601.75;;;24.94;28.69
59240;BME280;45010;53.640;10.578;2023-03-26T14:23:33;99633.03;;;25.15;28.98
59240;BME280;45010;53.640;10.578;2023-03-26T14:26:55;99636.22;;;25.17;28.93
59240;BME280;45010;53.640;10.578;2023-03-26T14:30:05;99629.81;;;25.12;28.96
59240;BME280;45010;53.640;10.578;2023-03-26T14:47:15;99642.66;;;25.21;29.44
59240;BME280;45010;53.640;10.578;2023-03-26T14:50:45;99638.91;;;25.22;29.70
59240;BME280;45010;53.640;10.578;2023-03-26T14:53:58;99640.53;;;25.23;29.69
59240;BME280;45010;53.640;10.578;2023-03-26T14:57:26;99638.66;;;25.23;29.82
59240;BME280;45010;53.640;10.578;2023-03-26T15:17:12;99643.22;;;25.28;30.06
59240;BME280;45010;53.640;10.578;2023-03-26T15:28:21;99646.13;;;25.27;30.07
59240;BME280;45010;53.640;10.578;2023-03-26T15:41:57;99615.41;;;25.14;30.22
59240;BME280;45010;53.640;10.578;2023-03-26T15:45:16;99631.72;;;25.17;30.39
59240;BME280;45010;53.640;10.578;2023-03-26T15:48:33;99638.38;;;25.25;30.77
59240;BME280;45010;53.640;10.578;2023-03-26T15:51:50;99640.00;;;25.26;31.08
59240;BME280;45010;53.640;10.578;2023-03-26T15:55:28;99653.34;;;25.31;31.27
59240;BME280;45010;53.640;10.578;2023-03-26T15:58:41;99651.50;;;25.32;31.49
59240;BME280;45010;53.640;10.578;2023-03-26T16:04:55;99667.25;;;25.33;32.03
59240;BME280;45010;53.640;10.578;2023-03-26T16:11:13;99670.69;;;25.34;32.40
59240;BME280;45010;53.640;10.578;2023-03-26T16:14:21;99661.91;;;25.33;32.36
59240;BME280;45010;53.640;10.578;2023-03-26T16:17:22;99664.56;;;25.33;32.41
59240;BME280;45010;53.640;10.578;2023-03-26T16:20:28;99664.84;;;25.32;32.24
59240;BME280;45010;53.640;10.578;2023-03-26T16:23:35;99665.66;;;25.32;32.28
59240;BME280;45010;53.640;10.578;2023-03-26T16:27:27;99668.28;;;25.27;32.34
59240;BME280;45010;53.640;10.578;2023-03-26T16:30:29;99648.50;;;25.18;32.23
59240;BME280;45010;53.640;10.578;2023-03-26T16:33:36;99673.09;;;25.30;32.30
59240;BME280;45010;53.640;10.578;2023-03-26T16:36:41;99670.41;;;25.25;32.47
59240;BME280;45010;53.640;10.578;2023-03-26T16:39:42;99673.09;;;25.30;32.48
59240;BME280;45010;53.640;10.578;2023-03-26T16:52:42;99683.22;;;25.28;32.81
59240;BME280;45010;53.640;10.578;2023-03-26T16:59:00;99687.50;;;25.29;32.83
59240;BME280;45010;53.640;10.578;2023-03-26T17:02:15;99692.84;;;25.29;33.11
59240;BME280;45010;53.640;10.578;2023-03-26T17:05:32;99700.88;;;25.34;32.84
59240;BME280;45010;53.640;10.578;2023-03-26T17:09:00;99707.81;;;25.35;32.74
59240;BME280;45010;53.640;10.578;2023-03-26T17:12:11;99712.34;;;25.35;32.81
59240;BME280;45010;53.640;10.578;2023-03-26T17:22:23;99729.97;;;25.36;32.70
59240;BME280;45010;53.640;10.578;2023-03-26T17:32:13;99736.06;;;25.31;32.51
59240;BME280;45010;53.640;10.578;2023-03-26T17:35:14;99753.72;;;25.37;32.42
59240;BME280;45010;53.640;10.578;2023-03-26T17:44:52;99770.53;;;25.38;32.43
59240;BME280;45010;53.640;10.578;2023-03-26T17:47:58;99771.34;;;25.33;32.29
59240;BME280;45010;53.640;10.578;2023-03-26T17:51:10;99763.84;;;25.30;32.33
59240;BME280;45010;53.640;10.578;2023-03-26T17:54:23;99778.56;;;25.38;32.23
59240;BME280;45010;53.640;10.578;2023-03-26T17:57:30;99774.00;;;25.33;32.43
59240;BME280;45010;53.640;10.578;2023-03-26T18:00:44;99779.34;;;25.33;32.29
59240;BME280;45010;53.640;10.578;2023-03-26T18:03:49;99794.31;;;25.39;32.22
59240;BME280;45010;53.640;10.578;2023-03-26T18:07:05;99790.56;;;25.41;32.18
59240;BME280;45010;53.640;10.578;2023-03-26T18:10:16;99801.25;;;25.41;31.99
59240;BME280;45010;53.640;10.578;2023-03-26T18:16:59;99801.22;;;25.35;32.09
59240;BME280;45010;53.640;10.578;2023-03-26T18:20:03;99803.88;;;25.35;32.15
59240;BME280;45010;53.640;10.578;2023-03-26T18:23:17;99805.50;;;25.36;32.10
59240;BME280;45010;53.640;10.578;2023-03-26T18:26:34;99812.97;;;25.34;32.09
59240;BME280;45010;53.640;10.578;2023-03-26T18:29:36;99825.81;;;25.43;32.10
59240;BME280;45010;53.640;10.578;2023-03-26T18:32:46;99814.31;;;25.37;32.12
59240;BME280;45010;53.640;10.578;2023-03-26T18:35:53;99823.09;;;25.37;32.22
59240;BME280;45010;53.640;10.578;2023-03-26T18:38:57;99838.09;;;25.44;32.21
59240;BME280;45010;53.640;10.578;2023-03-26T18:41:58;99827.38;;;25.33;32.24
59240;BME280;45010;53.640;10.578;2023-03-26T18:45:02;99844.50;;;25.43;31.99
59240;BME280;45010;53.640;10.578;2023-03-26T18:48:19;99839.69;;;25.39;32.14
59240;BME280;45010;53.640;10.578;2023-03-26T18:51:20;99834.38;;;25.45;31.84
59240;BME280;45010;53.640;10.578;2023-03-26T18:54:22;99838.66;;;25.46;31.98
59240;BME280;45010;53.640;10.578;2023-03-26T18:57:25;99833.28;;;25.41;32.10
59240;BME280;45010;53.640;10.578;2023-03-26T19:00:26;99848.25;;;25.47;32.26
59240;BME280;45010;53.640;10.578;2023-03-26T19:03:37;99854.41;;;25.47;32.25
59240;BME280;45010;53.640;10.578;2023-03-26T19:06:40;99845.56;;;25.42;32.55
59240;BME280;45010;53.640;10.578;2023-03-26T19:09:42;99857.34;;;25.46;32.47
59240;BME280;45010;53.640;10.578;2023-03-26T19:12:42;99862.16;;;25.49;32.46
59240;BME280;45010;53.640;10.578;2023-03-26T19:15:44;99861.09;;;25.50;32.40
59240;BME280;45010;53.640;10.578;2023-03-26T19:18:45;99868.03;;;25.46;32.40
59240;BME280;45010;53.640;10.578;2023-03-26T19:21:47;99870.72;;;25.51;32.48
59240;BME280;45010;53.640;10.578;2023-03-26T19:24:55;99870.44;;;25.52;32.16
59240;BME280;45010;53.640;10.578;2023-03-26T19:27:57;99875.00;;;25.52;32.31
59240;BME280;45010;53.640;10.578;2023-03-26T19:31:06;99867.50;;;25.49;32.49
59240;BME280;45010;53.640;10.578;2023-03-26T19:37:24;99883.31;;;25.56;32.25
59240;BME280;45010;53.640;10.578;2023-03-26T19:40:25;99888.91;;;25.54;32.33
59240;BME280;45010;53.640;10.578;2023-03-26T19:43:29;99891.56;;;25.54;32.26
59240;BME280;45010;53.640;10.578;2023-03-26T19:46:33;99892.06;;;25.51;32.47
59240;BME280;45010;53.640;10.578;2023-03-26T19:49:54;99894.78;;;25.56;32.25
59240;BME280;45010;53.640;10.578;2023-03-26T19:56:18;99907.09;;;25.57;32.34
59240;BME280;45010;53.640;10.578;2023-03-26T19:59:20;99906.28;;;25.57;32.29
59240;BME280;45010;53.640;10.578;2023-03-26T20:02:21;99897.41;;;25.51;32.23
59240;BME280;45010;53.640;10.578;2023-03-26T20:05:24;99898.22;;;25.51;32.26
59240;BME280;45010;53.640;10.578;2023-03-26T20:08:25;99910.81;;;25.56;32.21
59240;BME280;45010;53.640;10.578;2023-03-26T20:11:33;99905.44;;;25.51;32.29
59240;BME280;45010;53.640;10.578;2023-03-26T20:14:35;99919.38;;;25.58;32.61
59240;BME280;45010;53.640;10.578;2023-03-26T20:17:35;99915.09;;;25.57;32.35
59240;BME280;45010;53.640;10.578;2023-03-26T20:20:36;99916.69;;;25.53;32.22
59240;BME280;45010;53.640;10.578;2023-03-26T20:23:38;99920.16;;;25.59;32.10
59240;BME280;45010;53.640;10.578;2023-03-26T20:26:38;99923.63;;;25.54;32.13